Time;durP1;ratioP1;P1;durP2;ratioP2;P2;SDS_P1;SDS_P2;PMS_P1;PMS_P2;Temp;Humidity;BMP_temperature;BMP_pressure;BME280_temperature;BME280_humidity;BME280_pressure;Samples;Min_cycle;Max_cycle;Signal;HPM_P1;HPM_P2
2021/06/03 00:00:07;;;;;;;5.65;2.78;;;12.60;99.90;;;;;;4957415;29;20034;-68
2021/06/03 00:02:32;;;;;;;9.88;3.10;;;12.70;99.90;;;;;;4940031;29;20041;-68
2021/06/03 00:04:58;;;;;;;10.15;2.58;;;12.60;99.90;;;;;;4939798;29;20494;-67
2021/06/03 00:07:24;;;;;;;5.63;2.45;;;12.60;99.90;;;;;;4957450;29;20034;-67
2021/06/03 00:09:50;;;;;;;6.80;2.70;;;12.60;99.90;;;;;;4956970;29;20122;-67
2021/06/03 00:12:15;;;;;;;18.00;2.95;;;12.60;99.90;;;;;;4957031;29;20065;-68
2021/06/03 00:14:41;;;;;;;7.10;2.42;;;12.60;99.90;;;;;;4957138;29;20031;-68
2021/06/03 00:17:07;;;;;;;6.13;2.92;;;12.70;99.90;;;;;;4956834;29;20060;-68
2021/06/03 00:19:33;;;;;;;3.53;2.30;;;12.70;99.90;;;;;;4957024;29;20023;-68
2021/06/03 00:21:58;;;;;;;6.47;3.10;;;12.70;99.90;;;;;;4956843;29;20042;-67
2021/06/03 00:24:24;;;;;;;7.20;3.90;;;12.70;99.90;;;;;;4957071;29;20525;-68
2021/06/03 00:26:50;;;;;;;8.55;3.17;;;12.70;99.90;;;;;;4956894;29;20386;-68
2021/06/03 00:29:16;;;;;;;5.93;3.00;;;12.60;99.90;;;;;;4957057;29;20545;-68
2021/06/03 00:31:42;;;;;;;4.82;2.70;;;12.60;99.90;;;;;;4956714;29;20475;-68
2021/06/03 00:34:08;;;;;;;5.20;2.80;;;12.50;99.90;;;;;;4956831;29;20085;-68
2021/06/03 00:36:34;;;;;;;6.82;3.20;;;12.50;99.90;;;;;;4956417;29;20050;-68
2021/06/03 00:39:00;;;;;;;7.60;2.97;;;12.40;99.90;;;;;;4956473;29;20500;-68
2021/06/03 00:41:25;;;;;;;4.03;2.47;;;12.40;99.90;;;;;;4956790;29;20031;-68
2021/06/03 00:43:51;;;;;;;8.63;2.75;;;12.40;99.90;;;;;;4956398;29;20434;-67
2021/06/03 00:46:17;;;;;;;6.40;3.45;;;12.40;99.90;;;;;;4956370;29;20035;-67
2021/06/03 00:48:43;;;;;;;4.88;3.00;;;12.40;99.90;;;;;;4955611;28;20027;-67
2021/06/03 00:51:10;;;;;;;5.15;3.08;;;12.30;99.90;;;;;;4956473;29;20027;-67
2021/06/03 00:53:38;;;;;;;20.42;3.83;;;12.30;99.90;;;;;;4956283;29;20483;-67
2021/06/03 00:56:05;;;;;;;9.43;3.80;;;12.40;99.90;;;;;;4956169;29;20477;-68
2021/06/03 00:58:32;;;;;;;9.70;3.75;;;12.40;99.90;;;;;;4956424;29;20031;-69
2021/06/03 01:00:58;;;;;;;6.28;3.35;;;12.40;99.90;;;;;;4956362;29;20110;-68
2021/06/03 01:03:25;;;;;;;4.72;3.60;;;12.40;99.90;;;;;;4956117;29;20589;-68
2021/06/03 01:05:54;;;;;;;6.10;3.33;;;12.40;99.90;;;;;;4955884;29;20382;-67
2021/06/03 01:08:25;;;;;;;6.97;3.00;;;12.40;99.90;;;;;;4956361;29;20033;-67
2021/06/03 01:11:01;;;;;;;6.93;3.50;;;12.50;99.90;;;;;;4956302;29;20077;-68
2021/06/03 01:13:53;;;;;;;9.45;3.90;;;12.50;99.90;;;;;;4956046;29;20505;-67
2021/06/03 01:16:20;;;;;;;5.18;3.40;;;12.40;99.90;;;;;;4947178;29;20039;-67
2021/06/03 01:18:46;;;;;;;5.30;3.70;;;12.30;99.90;;;;;;4956072;29;20500;-67
2021/06/03 01:21:23;;;;;;;8.35;3.10;;;12.20;99.90;;;;;;4956016;29;20039;-67
2021/06/03 01:24:19;;;;;;;4.60;4.10;;;12.10;99.90;;;;;;4956191;29;20031;-67
2021/06/03 01:26:45;;;;;;;6.60;3.90;;;12.10;99.90;;;;;;4956119;29;20399;-67
2021/06/03 01:29:15;;;;;;;6.40;3.63;;;12.10;99.90;;;;;;4955908;29;20054;-67
2021/06/03 01:31:42;;;;;;;9.05;3.95;;;12.10;99.90;;;;;;4956046;29;20055;-67
2021/06/03 01:34:10;;;;;;;4.53;3.55;;;12.20;99.90;;;;;;4955625;29;20113;-68
2021/06/03 01:36:36;;;;;;;6.70;3.47;;;12.20;99.90;;;;;;4955328;29;20044;-67
2021/06/03 01:39:06;;;;;;;5.97;3.63;;;12.20;99.90;;;;;;4955617;29;20027;-67
2021/06/03 01:41:32;;;;;;;8.90;4.18;;;12.20;99.90;;;;;;4955474;29;20028;-67
2021/06/03 01:43:59;;;;;;;6.47;3.42;;;12.20;99.90;;;;;;4955246;29;20110;-68
2021/06/03 01:46:25;;;;;;;6.82;3.70;;;12.20;99.90;;;;;;4955384;29;20027;-68
2021/06/03 01:48:51;;;;;;;5.65;4.28;;;12.20;99.90;;;;;;4955362;29;20028;-67
2021/06/03 01:51:17;;;;;;;7.28;3.80;;;12.10;99.90;;;;;;4955068;29;20031;-68
2021/06/03 01:53:44;;;;;;;4.53;3.97;;;12.10;99.90;;;;;;4955128;29;20031;-67
2021/06/03 01:56:15;;;;;;;4.60;3.88;;;12.00;99.90;;;;;;4955112;29;20024;-67
2021/06/03 01:58:42;;;;;;;8.88;4.50;;;12.00;99.90;;;;;;4955163;29;20035;-68
2021/06/03 02:01:08;;;;;;;16.00;4.20;;;12.00;99.90;;;;;;4955171;28;20078;-68
2021/06/03 02:03:34;;;;;;;9.60;4.32;;;12.00;99.90;;;;;;4955300;28;20039;-68
2021/06/03 02:06:00;;;;;;;11.15;4.68;;;12.00;99.90;;;;;;4954900;29;20538;-68
2021/06/03 02:08:26;;;;;;;5.55;3.97;;;12.00;99.90;;;;;;4955228;29;20534;-68
2021/06/03 02:10:52;;;;;;;7.60;3.95;;;12.10;99.90;;;;;;4954999;29;20566;-68
2021/06/03 02:13:44;;;;;;;7.25;4.07;;;12.10;99.90;;;;;;4954770;29;20035;-68
2021/06/03 02:16:38;;;;;;;7.25;3.70;;;12.20;99.90;;;;;;4954725;29;20562;-68
2021/06/03 02:19:12;;;;;;;5.10;3.58;;;12.20;99.90;;;;;;4954626;29;20093;-68
2021/06/03 02:21:42;;;;;;;8.55;3.17;;;12.20;99.90;;;;;;4955027;29;20090;-68
2021/06/03 02:24:09;;;;;;;10.27;4.22;;;12.20;99.90;;;;;;4954486;29;20035;-67
2021/06/03 02:26:38;;;;;;;9.55;3.97;;;12.20;99.90;;;;;;4954580;29;20035;-68
2021/06/03 02:29:04;;;;;;;5.35;3.70;;;12.30;99.90;;;;;;4954582;29;20086;-67
2021/06/03 02:31:31;;;;;;;5.47;3.78;;;12.30;99.90;;;;;;4954568;29;20601;-68
2021/06/03 02:33:57;;;;;;;8.98;4.10;;;12.40;99.90;;;;;;4954478;29;20511;-69
2021/06/03 02:36:23;;;;;;;4.53;4.00;;;12.40;99.90;;;;;;4954273;28;20110;-69
2021/06/03 02:38:49;;;;;;;11.00;4.57;;;12.40;99.90;;;;;;4954741;29;20494;-68
2021/06/03 02:41:15;;;;;;;10.32;4.60;;;12.40;99.90;;;;;;4954386;29;20383;-68
2021/06/03 02:43:47;;;;;;;6.15;4.85;;;12.40;99.90;;;;;;4954696;29;20030;-67
2021/06/03 02:46:15;;;;;;;10.25;4.50;;;12.50;99.90;;;;;;4954208;29;20122;-67
2021/06/03 02:48:41;;;;;;;6.85;4.53;;;12.70;99.90;;;;;;4954258;29;20610;-67
2021/06/03 02:51:07;;;;;;;6.22;4.35;;;12.90;99.90;;;;;;4954199;29;20118;-67
2021/06/03 02:53:32;;;;;;;7.68;5.68;;;13.00;99.90;;;;;;4954484;28;20026;-67
2021/06/03 02:55:58;;;;;;;6.90;4.68;;;13.10;99.90;;;;;;4954170;29;20103;-68
2021/06/03 02:58:25;;;;;;;6.85;4.43;;;13.20;99.90;;;;;;4954052;29;20041;-68
2021/06/03 03:00:51;;;;;;;9.35;4.72;;;13.30;99.90;;;;;;4954388;29;20023;-67
2021/06/03 03:03:18;;;;;;;8.88;4.45;;;13.40;99.90;;;;;;4954247;29;20035;-67
2021/06/03 03:05:44;;;;;;;5.03;4.13;;;13.40;99.90;;;;;;4954268;29;20510;-67
2021/06/03 03:08:11;;;;;;;8.18;4.30;;;13.40;99.90;;;;;;4954198;29;20024;-68
2021/06/03 03:10:42;;;;;;;8.40;4.68;;;13.40;99.90;;;;;;4954035;29;20031;-67
2021/06/03 03:13:09;;;;;;;11.52;4.43;;;13.60;99.90;;;;;;4936238;29;20039;-67
2021/06/03 03:15:36;;;;;;;6.13;3.80;;;13.70;99.90;;;;;;4953955;28;20395;-67
2021/06/03 03:18:03;;;;;;;5.90;3.90;;;14.10;99.90;;;;;;4953756;29;20019;-67
2021/06/03 03:20:29;;;;;;;3.83;3.42;;;14.50;99.90;;;;;;4953925;29;20083;-67
2021/06/03 03:22:56;;;;;;;7.40;3.88;;;14.90;99.90;;;;;;4953907;29;20031;-67
2021/06/03 03:25:25;;;;;;;5.35;3.30;;;15.30;99.90;;;;;;4953654;29;20490;-67
2021/06/03 03:27:51;;;;;;;3.85;3.42;;;15.60;99.90;;;;;;4953752;29;20114;-67
2021/06/03 03:30:19;;;;;;;3.78;3.20;;;15.90;99.70;;;;;;4953726;29;20065;-67
2021/06/03 03:32:46;;;;;;;9.13;3.17;;;16.20;97.80;;;;;;4953719;29;20026;-68
2021/06/03 03:35:13;;;;;;;4.03;2.78;;;16.40;95.30;;;;;;4953844;29;20443;-68
2021/06/03 03:37:41;;;;;;;7.53;3.05;;;16.60;93.30;;;;;;4953643;29;20505;-67
2021/06/03 03:40:10;;;;;;;4.05;2.83;;;17.00;91.80;;;;;;4953879;29;20035;-68
2021/06/03 03:42:37;;;;;;;6.35;3.10;;;17.40;89.90;;;;;;4953683;29;20023;-68
2021/06/03 03:45:04;;;;;;;3.70;3.00;;;17.80;84.70;;;;;;4953509;29;20066;-68
2021/06/03 03:47:30;;;;;;;4.07;3.00;;;18.10;81.20;;;;;;4953556;29;20027;-68
2021/06/03 03:49:56;;;;;;;5.45;2.60;;;18.30;77.80;;;;;;4954031;29;20082;-68
2021/06/03 03:52:22;;;;;;;3.97;2.70;;;18.60;76.50;;;;;;4953693;29;20078;-68
2021/06/03 03:54:48;;;;;;;3.40;2.78;;;19.00;74.30;;;;;;4953899;29;20126;-68
2021/06/03 03:57:14;;;;;;;5.80;3.15;;;19.10;73.90;;;;;;4953366;29;20023;-68
2021/06/03 03:59:40;;;;;;;3.92;2.67;;;19.50;70.80;;;;;;4953652;29;20027;-68
2021/06/03 04:02:05;;;;;;;5.50;2.90;;;19.70;68.50;;;;;;4953570;29;20118;-68
2021/06/03 04:04:31;;;;;;;4.78;2.70;;;20.10;67.60;;;;;;4953575;29;20051;-67
2021/06/03 04:06:58;;;;;;;5.43;2.60;;;20.40;66.20;;;;;;4953774;29;20027;-68
2021/06/03 04:09:24;;;;;;;4.72;2.95;;;20.60;64.30;;;;;;4953573;28;20102;-68
2021/06/03 04:11:50;;;;;;;7.65;2.97;;;20.80;63.60;;;;;;4953771;29;20038;-67
2021/06/03 04:14:16;;;;;;;3.42;2.63;;;21.00;63.40;;;;;;4953701;29;20050;-67
2021/06/03 04:16:42;;;;;;;3.17;2.70;;;21.30;62.30;;;;;;4953778;29;20078;-67
2021/06/03 04:19:08;;;;;;;5.82;2.95;;;21.60;61.00;;;;;;4953199;29;20107;-67
2021/06/03 04:21:33;;;;;;;6.78;2.92;;;21.80;59.90;;;;;;4953668;29;20115;-67
2021/06/03 04:23:59;;;;;;;5.35;2.88;;;22.10;59.30;;;;;;4954498;28;20020;-67
2021/06/03 04:26:25;;;;;;;4.03;2.30;;;22.30;58.80;;;;;;4956601;29;20090;-67
2021/06/03 04:28:51;;;;;;;3.25;2.45;;;22.50;58.10;;;;;;4957041;29;20024;-69
2021/06/03 04:31:17;;;;;;;3.17;2.20;;;22.80;57.30;;;;;;4956812;28;20098;-73
2021/06/03 04:33:43;;;;;;;4.20;2.35;;;23.00;56.60;;;;;;4956626;29;20106;-78
2021/06/03 04:36:09;;;;;;;6.00;2.50;;;23.00;56.10;;;;;;4956418;28;20043;-78
2021/06/03 04:38:35;;;;;;;3.10;2.10;;;23.00;56.30;;;;;;4956540;29;20027;-78
2021/06/03 04:41:01;;;;;;;2.80;2.38;;;23.00;55.70;;;;;;4956592;29;20030;-84
2021/06/03 04:43:28;;;;;;;2.45;1.92;;;23.00;55.30;;;;;;4956403;29;20066;-76
2021/06/03 04:45:54;;;;;;;11.68;2.40;;;23.00;55.30;;;;;;4956557;29;20070;-78
2021/06/03 04:48:19;;;;;;;5.05;2.42;;;23.10;54.90;;;;;;4956194;29;20055;-79
2021/06/03 04:50:46;;;;;;;4.82;2.10;;;23.30;54.60;;;;;;4956422;28;20061;-74
2021/06/03 04:53:13;;;;;;;3.20;2.25;;;23.40;54.40;;;;;;4956031;29;20044;-73
2021/06/03 04:55:39;;;;;;;3.60;1.88;;;23.40;54.40;;;;;;4956535;29;20448;-75
2021/06/03 04:58:06;;;;;;;5.82;2.17;;;23.50;54.00;;;;;;4956043;29;20063;-72
2021/06/03 05:00:34;;;;;;;3.88;2.17;;;23.70;53.70;;;;;;4956158;29;20031;-74
2021/06/03 05:03:01;;;;;;;7.88;2.03;;;23.90;53.40;;;;;;4956158;29;20038;-80
2021/06/03 05:05:28;;;;;;;4.85;2.08;;;24.00;53.60;;;;;;4956176;29;20042;-80
2021/06/03 05:07:54;;;;;;;3.67;1.73;;;24.10;54.10;;;;;;4956026;29;20098;-81
2021/06/03 05:10:21;;;;;;;3.47;1.80;;;24.40;52.50;;;;;;4955722;29;20509;-81
2021/06/03 05:12:48;;;;;;;6.05;1.90;;;24.40;51.70;;;;;;4956019;29;20042;-73
2021/06/03 05:15:14;;;;;;;5.20;1.58;;;24.40;51.70;;;;;;4955778;29;20031;-75
2021/06/03 05:17:41;;;;;;;6.72;2.00;;;24.50;51.40;;;;;;4955940;29;20028;-75
2021/06/03 05:20:12;;;;;;;6.53;1.70;;;24.60;50.60;;;;;;4955954;29;20061;-74
2021/06/03 05:22:38;;;;;;;1.90;1.70;;;24.70;50.70;;;;;;4947579;29;20491;-74
2021/06/03 05:25:14;;;;;;;98.38;5.80;;;24.80;50.30;;;;;;4936461;29;20040;-75
2021/06/03 05:27:40;;;;;;;3.10;1.80;;;25.00;49.80;;;;;;4936551;29;20496;-75
2021/06/03 05:30:08;;;;;;;4.22;1.52;;;25.20;49.60;;;;;;4936542;29;20032;-75
2021/06/03 05:32:34;;;;;;;20.63;2.33;;;25.50;49.40;;;;;;4936557;29;20032;-74
2021/06/03 05:35:00;;;;;;;5.95;1.83;;;25.80;49.40;;;;;;4936224;29;20024;-75
2021/06/03 05:37:26;;;;;;;10.88;2.00;;;26.00;48.80;;;;;;4936106;29;20106;-75
2021/06/03 05:39:52;;;;;;;6.55;1.50;;;26.10;48.00;;;;;;4936525;29;20024;-75
2021/06/03 05:42:19;;;;;;;5.50;1.52;;;26.20;47.40;;;;;;4936288;29;20682;-75
2021/06/03 05:44:45;;;;;;;3.63;1.48;;;26.30;47.70;;;;;;4936407;29;20040;-75
2021/06/03 05:47:10;;;;;;;6.10;1.35;;;26.50;47.30;;;;;;4936368;29;20028;-75
2021/06/03 05:49:36;;;;;;;17.00;1.92;;;26.50;47.30;;;;;;4936279;29;20554;-75
2021/06/03 05:52:03;;;;;;;7.35;2.10;;;26.70;46.50;;;;;;4936449;29;20599;-79
2021/06/03 05:54:30;;;;;;;6.68;1.80;;;26.90;46.80;;;;;;4935888;29;20443;-79
2021/06/03 05:56:56;;;;;;;6.60;1.67;;;27.10;46.00;;;;;;4936280;29;20106;-77
2021/06/03 05:59:22;;;;;;;6.50;1.42;;;27.20;45.50;;;;;;4935794;29;20035;-75
2021/06/03 06:01:48;;;;;;;6.63;1.58;;;27.30;44.80;;;;;;4936038;29;20062;-74
2021/06/03 06:06:42;;;;;;;8.35;2.63;;;27.40;45.50;;;;;;4935990;29;20091;-75
2021/06/03 06:09:11;;;;;;;8.38;1.85;;;27.50;45.70;;;;;;4935962;29;20032;-76
2021/06/03 06:11:39;;;;;;;7.10;1.50;;;27.50;45.40;;;;;;4936133;29;20114;-76
2021/06/03 06:14:06;;;;;;;12.77;1.80;;;27.70;44.60;;;;;;4935951;29;20027;-78
2021/06/03 06:16:32;;;;;;;15.18;1.63;;;27.70;44.30;;;;;;4935647;29;20526;-79
2021/06/03 06:18:58;;;;;;;10.38;1.70;;;27.90;44.30;;;;;;4935545;29;20036;-79
2021/06/03 06:21:24;;;;;;;6.18;1.60;;;28.10;44.00;;;;;;4935440;29;20020;-78
2021/06/03 06:23:50;;;;;;;3.80;1.45;;;28.10;43.90;;;;;;4935773;29;20102;-78
2021/06/03 06:26:20;;;;;;;45.78;4.97;;;28.00;43.50;;;;;;4935429;29;20085;-79
2021/06/03 06:28:46;;;;;;;5.28;1.20;;;28.00;43.60;;;;;;4935793;29;20067;-79
2021/06/03 06:31:13;;;;;;;8.85;1.50;;;28.20;43.40;;;;;;4935637;29;20039;-79
2021/06/03 06:33:39;;;;;;;3.72;1.45;;;28.40;43.10;;;;;;4935334;29;20032;-79
2021/06/03 06:36:06;;;;;;;8.52;1.50;;;28.30;43.10;;;;;;4918132;29;20048;-79
2021/06/03 06:38:33;;;;;;;4.20;1.50;;;28.00;42.90;;;;;;4935077;29;20028;-79
2021/06/03 06:40:59;;;;;;;73.00;5.47;;;28.00;42.90;;;;;;4918369;29;20448;-80
2021/06/03 06:43:25;;;;;;;22.33;2.30;;;28.00;42.90;;;;;;4935029;29;20118;-80
2021/06/03 06:45:51;;;;;;;5.15;1.50;;;28.00;43.70;;;;;;4934777;29;20090;-81
2021/06/03 06:48:17;;;;;;;6.45;1.50;;;28.00;43.30;;;;;;4934699;29;20102;-82
2021/06/03 06:50:45;;;;;;;2.53;1.52;;;28.00;42.40;;;;;;4935114;29;20034;-74
2021/06/03 06:53:12;;;;;;;9.60;1.42;;;28.00;42.90;;;;;;4935158;29;20155;-68
2021/06/03 06:55:39;;;;;;;2.80;1.30;;;28.00;43.10;;;;;;4934494;29;20066;-67
2021/06/03 06:58:05;;;;;;;3.53;1.00;;;28.00;43.00;;;;;;4935214;29;20099;-75
2021/06/03 07:00:34;;;;;;;3.72;1.35;;;28.10;42.70;;;;;;4935252;29;20046;-74
2021/06/03 07:03:00;;;;;;;7.63;1.43;;;28.10;42.80;;;;;;4935004;29;20076;-69
2021/06/03 07:05:27;;;;;;;3.67;1.42;;;28.00;42.40;;;;;;4902145;29;20150;-68
2021/06/03 07:07:53;;;;;;;5.45;1.30;;;28.10;42.10;;;;;;4935003;29;20033;-71
2021/06/03 07:10:19;;;;;;;3.50;1.40;;;28.00;41.70;;;;;;4935214;29;20078;-68
2021/06/03 07:12:47;;;;;;;10.73;1.50;;;28.00;41.80;;;;;;4934684;29;20030;-69
2021/06/03 07:15:14;;;;;;;8.93;1.25;;;28.00;41.60;;;;;;4934705;29;20083;-68
2021/06/03 07:17:40;;;;;;;11.02;1.42;;;28.00;41.30;;;;;;4934854;29;20571;-68
2021/06/03 07:20:11;;;;;;;9.45;1.80;;;27.90;41.40;;;;;;4934795;29;20118;-67
2021/06/03 07:22:38;;;;;;;10.65;1.45;;;27.70;41.10;;;;;;4935014;29;20103;-67
2021/06/03 07:25:06;;;;;;;6.47;1.55;;;27.50;40.80;;;;;;4931517;29;20131;-67
2021/06/03 07:27:32;;;;;;;26.60;3.22;;;27.40;41.10;;;;;;4925495;29;20476;-67
2021/06/03 07:30:00;;;;;;;4.60;1.63;;;27.40;41.60;;;;;;4920121;29;20110;-67
2021/06/03 07:32:29;;;;;;;6.15;1.30;;;27.50;40.90;;;;;;4922785;29;20103;-67
2021/06/03 07:34:55;;;;;;;8.30;1.63;;;27.50;40.80;;;;;;4915751;29;20056;-69
2021/06/03 07:37:21;;;;;;;7.57;1.50;;;27.50;40.90;;;;;;4917800;29;20083;-69
2021/06/03 07:39:46;;;;;;;17.15;1.60;;;27.50;40.90;;;;;;4915544;29;20462;-69
2021/06/03 07:42:12;;;;;;;4.78;1.00;;;27.50;40.30;;;;;;4915420;29;20571;-69
2021/06/03 07:44:39;;;;;;;1.73;1.00;;;27.40;40.80;;;;;;4922645;29;20046;-69
2021/06/03 07:47:05;;;;;;;19.73;2.25;;;27.40;40.90;;;;;;4916877;29;20497;-70
2021/06/03 07:49:31;;;;;;;3.65;1.00;;;27.20;39.90;;;;;;4933233;29;20039;-69
2021/06/03 07:51:57;;;;;;;11.70;1.52;;;27.10;40.60;;;;;;4923633;29;20112;-70
2021/06/03 07:54:23;;;;;;;4.63;1.27;;;27.00;40.10;;;;;;4922729;29;20481;-70
2021/06/03 07:56:49;;;;;;;4.78;1.52;;;27.00;41.00;;;;;;4917771;29;20028;-70
2021/06/03 07:59:16;;;;;;;4.90;1.13;;;27.10;40.90;;;;;;4918445;29;20047;-69
2021/06/03 08:01:42;;;;;;;4.97;0.98;;;27.00;41.20;;;;;;4919040;29;20114;-69
2021/06/03 08:04:07;;;;;;;14.65;1.98;;;27.00;40.70;;;;;;4918901;29;20543;-78
2021/06/03 08:06:34;;;;;;;15.32;1.88;;;26.90;41.30;;;;;;4918904;29;20040;-82
2021/06/03 08:08:59;;;;;;;5.15;1.20;;;26.70;41.00;;;;;;4919129;29;20033;-79
2021/06/03 08:11:26;;;;;;;2.20;0.90;;;26.60;41.30;;;;;;4918870;29;20032;-78
2021/06/03 08:13:51;;;;;;;5.10;1.30;;;26.70;41.20;;;;;;4919007;29;20029;-78
2021/06/03 08:16:19;;;;;;;3.10;1.10;;;26.70;40.80;;;;;;4918708;29;20035;-78
2021/06/03 08:18:45;;;;;;;6.70;1.10;;;26.70;40.10;;;;;;4918955;29;20028;-79
2021/06/03 08:21:11;;;;;;;3.53;1.20;;;26.80;40.60;;;;;;4918736;29;20076;-79
2021/06/03 08:23:37;;;;;;;10.65;1.17;;;26.90;39.60;;;;;;4918942;29;20413;-78
2021/06/03 08:26:03;;;;;;;10.02;1.27;;;26.90;39.30;;;;;;4918722;29;20040;-78
2021/06/03 08:28:29;;;;;;;3.65;1.10;;;26.80;39.30;;;;;;4918592;29;20027;-78
2021/06/03 08:30:58;;;;;;;3.35;1.00;;;26.70;39.60;;;;;;4919089;29;20051;-78
2021/06/03 08:33:25;;;;;;;2.43;1.40;;;26.70;40.20;;;;;;4918464;29;20024;-78
2021/06/03 08:35:50;;;;;;;5.07;1.20;;;26.70;40.10;;;;;;4918435;29;20287;-79
2021/06/03 08:38:17;;;;;;;8.13;1.38;;;26.80;39.40;;;;;;4918523;29;20040;-78
2021/06/03 08:40:44;;;;;;;4.00;1.10;;;26.80;39.10;;;;;;4918397;29;20036;-78
2021/06/03 08:43:11;;;;;;;10.95;1.30;;;26.80;39.30;;;;;;4918781;29;20035;-79
2021/06/03 08:45:38;;;;;;;4.70;1.20;;;26.90;38.70;;;;;;4918373;29;20040;-79
2021/06/03 08:48:05;;;;;;;2.15;1.05;;;26.90;39.10;;;;;;4918641;29;20539;-79
2021/06/03 08:50:35;;;;;;;9.05;1.50;;;26.90;38.80;;;;;;4918467;29;20075;-78
2021/06/03 08:53:02;;;;;;;4.25;1.17;;;26.90;39.40;;;;;;4918154;29;20514;-79
2021/06/03 08:58:17;;;;;;;8.57;1.20;;;26.90;38.30;;;;;;4918498;29;20416;-78
2021/06/03 09:00:43;;;;;;;2.20;1.00;;;27.00;38.50;;;;;;4918058;29;20092;-78
2021/06/03 09:03:10;;;;;;;1.40;0.70;;;26.90;38.80;;;;;;4917916;29;20040;-78
2021/06/03 09:05:36;;;;;;;4.45;1.08;;;26.80;39.10;;;;;;4918154;29;20040;-79
2021/06/03 09:08:26;;;;;;;1.40;0.80;;;26.70;38.70;;;;;;4917821;29;20063;-79
2021/06/03 09:10:55;;;;;;;3.10;1.10;;;26.80;38.60;;;;;;4917551;29;20060;-79
2021/06/03 09:13:21;;;;;;;3.90;1.20;;;26.70;38.80;;;;;;4917525;29;20024;-79
2021/06/03 09:15:55;;;;;;;9.98;1.10;;;26.70;38.60;;;;;;4917684;29;20031;-79
2021/06/03 09:18:38;;;;;;;6.63;0.90;;;26.70;39.50;;;;;;4917936;29;20059;-79
2021/06/03 09:21:35;;;;;;;4.47;1.02;;;26.70;38.60;;;;;;4917922;29;20063;-79
2021/06/03 09:24:04;;;;;;;9.35;1.20;;;26.70;37.70;;;;;;4917601;29;20036;-79
2021/06/03 09:26:35;;;;;;;4.47;1.10;;;26.80;38.40;;;;;;4917366;29;20043;-79
2021/06/03 09:29:03;;;;;;;0.90;0.80;;;26.80;38.40;;;;;;4917579;29;20121;-79
2021/06/03 09:31:32;;;;;;;5.90;1.10;;;26.80;38.70;;;;;;4917375;29;20028;-79
2021/06/03 09:34:03;;;;;;;4.22;0.90;;;26.80;38.20;;;;;;4917589;29;20115;-79
2021/06/03 09:36:44;;;;;;;12.98;1.60;;;26.80;39.10;;;;;;4916993;29;20104;-79
2021/06/03 09:39:23;;;;;;;8.73;1.42;;;26.80;40.20;;;;;;4917508;29;20107;-85
2021/06/03 09:42:01;;;;;;;5.85;1.20;;;26.70;39.00;;;;;;4917235;29;20080;-84
2021/06/03 09:44:38;;;;;;;8.07;1.98;;;26.60;37.80;;;;;;4917214;29;20032;-84
2021/06/03 09:47:10;;;;;;;9.05;1.55;;;26.50;38.70;;;;;;4908336;29;20574;-85
2021/06/03 09:49:39;;;;;;;7.70;1.25;;;26.40;39.10;;;;;;4935982;29;20028;-79
2021/06/03 09:52:11;;;;;;;5.63;1.48;;;26.40;39.30;;;;;;4936463;29;20032;-87
2021/06/03 09:54:38;;;;;;;4.70;0.82;;;26.40;39.00;;;;;;4936950;29;20052;-81
2021/06/03 09:57:10;;;;;;;3.88;1.00;;;26.40;38.90;;;;;;4939236;29;20032;-73
2021/06/03 09:59:47;;;;;;;49.78;3.65;;;26.40;39.20;;;;;;4927474;29;20035;-73
2021/06/03 10:02:19;;;;;;;1.08;0.73;;;26.30;39.30;;;;;;4936249;29;20024;-72
2021/06/03 10:04:53;;;;;;;8.60;1.20;;;26.30;40.20;;;;;;4935950;29;20023;-72
2021/06/03 10:07:30;;;;;;;3.53;1.30;;;26.30;39.90;;;;;;4936405;29;20036;-72
2021/06/03 10:09:57;;;;;;;12.45;1.33;;;26.30;40.10;;;;;;4935953;29;20471;-72
2021/06/03 10:12:23;;;;;;;12.82;1.65;;;26.30;40.20;;;;;;4935813;29;20028;-72
2021/06/03 10:15:08;;;;;;;12.80;1.40;;;26.40;38.60;;;;;;4935694;29;20032;-72
2021/06/03 10:17:39;;;;;;;2.10;0.90;;;26.50;38.90;;;;;;4935607;29;20479;-74
2021/06/03 10:20:09;;;;;;;11.93;1.50;;;26.50;39.90;;;;;;4935596;29;20028;-73
2021/06/03 10:22:37;;;;;;;5.03;1.10;;;26.40;40.10;;;;;;4934866;29;20051;-73
2021/06/03 10:25:02;;;;;;;18.63;3.65;;;26.40;39.90;;;;;;4935550;29;20031;-73
2021/06/03 10:27:56;;;;;;;13.90;1.80;;;26.50;40.70;;;;;;4935354;29;20031;-74
2021/06/03 10:30:23;;;;;;;18.58;4.60;;;26.60;40.90;;;;;;4931096;29;20036;-73
2021/06/03 10:32:51;;;;;;;14.23;3.60;;;26.50;41.00;;;;;;4920893;29;20563;-73
2021/06/03 10:35:23;;;;;;;5.18;1.70;;;26.50;41.00;;;;;;4919085;29;20063;-74
2021/06/03 10:37:49;;;;;;;7.63;1.27;;;26.40;41.90;;;;;;4934090;29;20058;-73
2021/06/03 10:40:19;;;;;;;15.30;2.00;;;26.40;41.50;;;;;;4935426;29;20068;-73
2021/06/03 10:42:45;;;;;;;8.63;1.33;;;26.50;41.60;;;;;;4935483;29;20019;-73
2021/06/03 10:45:15;;;;;;;7.97;1.55;;;26.60;41.20;;;;;;4935023;29;20036;-73
2021/06/03 10:47:43;;;;;;;57.75;3.20;;;26.60;41.10;;;;;;4935445;29;20028;-74
2021/06/03 10:50:35;;;;;;;16.35;1.83;;;26.60;40.60;;;;;;4935410;29;20074;-73
2021/06/03 10:53:08;;;;;;;6.47;1.45;;;26.50;40.90;;;;;;4934979;29;20060;-73
2021/06/03 10:55:37;;;;;;;3.85;1.40;;;26.50;41.00;;;;;;4935208;29;20095;-73
2021/06/03 10:58:04;;;;;;;9.25;2.05;;;26.50;41.20;;;;;;4935279;29;20020;-73
2021/06/03 11:00:41;;;;;;;7.03;1.30;;;26.50;40.50;;;;;;4935203;29;20091;-73
2021/06/03 11:03:08;;;;;;;6.22;1.65;;;26.50;41.60;;;;;;4935072;29;20035;-73
2021/06/03 11:05:49;;;;;;;8.02;1.73;;;26.50;42.20;;;;;;4934588;29;20070;-73
2021/06/03 11:08:27;;;;;;;3.03;1.42;;;26.50;43.00;;;;;;4935816;29;20028;-76
2021/06/03 11:10:53;;;;;;;14.65;1.95;;;26.50;43.00;;;;;;4935388;29;20063;-75
2021/06/03 11:13:21;;;;;;;10.30;1.95;;;26.50;42.30;;;;;;4935765;29;20063;-76
2021/06/03 11:16:22;;;;;;;6.07;1.20;;;26.50;42.10;;;;;;4936067;29;20027;-75
2021/06/03 11:18:48;;;;;;;5.68;1.50;;;26.40;43.10;;;;;;4929247;29;20040;-75
2021/06/03 11:21:35;;;;;;;8.63;2.17;;;26.40;41.80;;;;;;4935735;29;20075;-76
2021/06/03 11:24:31;;;;;;;2.88;1.20;;;26.50;42.30;;;;;;4936070;29;20112;-76
2021/06/03 11:26:59;;;;;;;8.45;1.55;;;26.50;42.30;;;;;;4933268;29;20380;-76
2021/06/03 11:29:25;;;;;;;9.65;1.60;;;26.50;42.00;;;;;;4936010;29;20027;-76
2021/06/03 11:32:03;;;;;;;10.43;1.50;;;26.50;41.40;;;;;;4935844;29;20027;-76
2021/06/03 11:34:38;;;;;;;4.05;1.45;;;26.40;41.40;;;;;;4939592;29;20027;-77
2021/06/03 11:37:25;;;;;;;5.07;1.33;;;26.40;41.30;;;;;;4938374;29;20495;-75
2021/06/03 11:39:55;;;;;;;5.72;1.23;;;26.30;41.00;;;;;;4937935;29;20415;-74
2021/06/03 11:42:29;;;;;;;4.20;1.35;;;26.30;40.40;;;;;;4937974;29;20479;-75
2021/06/03 11:45:03;;;;;;;5.95;1.63;;;26.30;41.40;;;;;;4938471;29;20032;-76
2021/06/03 11:47:38;;;;;;;10.27;1.65;;;26.30;41.40;;;;;;4937849;29;20558;-80
2021/06/03 11:50:16;;;;;;;1.88;1.30;;;26.30;41.60;;;;;;4937985;29;20467;-78
2021/06/03 11:55:26;;;;;;;16.10;1.85;;;26.30;41.50;;;;;;4938221;29;20479;-79
2021/06/03 11:58:11;;;;;;;14.25;1.70;;;26.30;39.90;;;;;;4937896;29;20035;-78
2021/06/03 12:00:46;;;;;;;11.77;1.38;;;26.20;39.20;;;;;;4937171;29;20031;-76
2021/06/03 12:03:24;;;;;;;4.63;1.13;;;26.20;39.70;;;;;;4937892;29;20027;-79
2021/06/03 12:05:54;;;;;;;1.85;1.10;;;26.20;40.80;;;;;;4937689;29;20387;-78
2021/06/03 12:08:32;;;;;;;7.13;1.45;;;26.20;40.20;;;;;;4937640;29;20020;-78
2021/06/03 12:10:58;;;;;;;22.92;2.38;;;26.20;39.80;;;;;;4937206;29;20027;-78
2021/06/03 12:13:25;;;;;;;6.68;1.55;;;26.20;39.70;;;;;;4937549;29;20079;-78
2021/06/03 12:15:51;;;;;;;14.27;1.60;;;26.10;39.60;;;;;;4937568;29;20035;-78
2021/06/03 12:18:17;;;;;;;9.77;1.42;;;26.10;40.70;;;;;;4937747;29;20039;-78
2021/06/03 12:20:44;;;;;;;13.02;1.75;;;26.10;39.80;;;;;;4937202;29;20423;-78
2021/06/03 12:23:11;;;;;;;11.75;1.60;;;26.10;39.90;;;;;;4937396;29;20027;-78
2021/06/03 12:25:43;;;;;;;26.55;2.13;;;26.10;39.30;;;;;;4937165;29;20035;-78
2021/06/03 12:28:11;;;;;;;21.85;2.30;;;26.10;39.20;;;;;;4937513;29;20118;-78
2021/06/03 12:30:42;;;;;;;5.53;1.30;;;26.10;39.40;;;;;;4936944;29;20055;-78
2021/06/03 12:33:08;;;;;;;37.08;2.47;;;26.10;40.20;;;;;;4937037;29;20028;-77
2021/06/03 12:35:48;;;;;;;8.43;1.58;;;26.10;40.00;;;;;;4936991;29;20035;-77
2021/06/03 12:38:34;;;;;;;5.35;1.70;;;26.10;39.80;;;;;;4937316;29;20028;-77
2021/06/03 12:41:06;;;;;;;4.28;1.23;;;26.10;39.70;;;;;;4936927;29;20038;-78
2021/06/03 12:43:42;;;;;;;3.63;1.20;;;26.10;40.10;;;;;;4936833;29;20475;-78
2021/06/03 12:46:09;;;;;;;5.68;1.50;;;26.10;40.70;;;;;;4936701;29;20398;-80
2021/06/03 12:48:35;;;;;;;7.38;1.50;;;26.10;39.70;;;;;;4934974;29;20036;-69
2021/06/03 12:51:06;;;;;;;4.10;1.48;;;26.10;40.10;;;;;;4923375;29;20024;-71
2021/06/03 12:53:31;;;;;;;8.90;1.23;;;26.10;40.00;;;;;;4929045;29;20063;-78
2021/06/03 12:55:57;;;;;;;4.88;1.38;;;26.10;39.70;;;;;;4928191;29;20114;-77
2021/06/03 12:58:25;;;;;;;5.60;1.42;;;26.00;39.60;;;;;;4918212;29;20032;-77
2021/06/03 13:00:52;;;;;;;6.05;1.55;;;26.00;39.60;;;;;;4917928;29;20100;-77